Time;durP1;ratioP1;P1;durP2;ratioP2;P2;SDS_P1;SDS_P2;PMS_P1;PMS_P2;Temp;Humidity;BMP_temperature;BMP_pressure;BME280_temperature;BME280_humidity;BME280_pressure;Samples;Min_cycle;Max_cycle;Signal;HPM_P1;HPM_P2
2021/03/01 00:00:41;;;;;;;62.92;25.30;;;5.90;99.90;;;;;;5005324;28;20210;-74
2021/03/01 00:03:08;;;;;;;57.20;25.08;;;5.80;99.90;;;;;;5005177;28;20207;-75
2021/03/01 00:05:34;;;;;;;51.80;24.42;;;5.80;99.90;;;;;;5004987;28;20250;-75
2021/03/01 00:08:01;;;;;;;53.50;24.20;;;5.70;99.90;;;;;;5004942;28;20617;-75
2021/03/01 00:10:27;;;;;;;56.45;24.15;;;5.80;99.90;;;;;;5007790;28;20207;-75
2021/03/01 00:12:54;;;;;;;54.08;24.10;;;5.70;99.90;;;;;;5009607;28;20363;-75
2021/03/01 00:15:23;;;;;;;50.25;24.80;;;5.80;99.90;;;;;;5009047;28;20204;-75
2021/03/01 00:17:50;;;;;;;52.90;24.90;;;5.90;99.90;;;;;;5012458;28;20207;-75
2021/03/01 00:20:17;;;;;;;47.50;23.50;;;5.90;99.90;;;;;;5008494;28;20567;-75
2021/03/01 00:22:44;;;;;;;58.53;26.38;;;6.00;99.90;;;;;;5014964;28;20233;-75
2021/03/01 00:25:12;;;;;;;51.97;25.58;;;6.00;99.90;;;;;;5017654;28;20219;-75
2021/03/01 00:27:39;;;;;;;53.65;24.65;;;6.10;99.90;;;;;;5008283;28;20209;-75
2021/03/01 00:30:09;;;;;;;52.90;25.85;;;6.30;99.90;;;;;;5009101;28;20254;-75
2021/03/01 00:32:36;;;;;;;52.97;25.00;;;6.20;99.90;;;;;;5008727;28;20214;-75
2021/03/01 00:35:04;;;;;;;47.03;23.17;;;6.30;99.90;;;;;;5009076;28;20298;-75
2021/03/01 00:37:30;;;;;;;52.80;25.80;;;6.30;99.90;;;;;;5009373;28;20223;-75
2021/03/01 00:39:57;;;;;;;51.95;24.20;;;6.30;99.90;;;;;;5010610;28;20203;-75
2021/03/01 00:42:23;;;;;;;46.17;22.58;;;6.30;99.90;;;;;;5012178;28;20199;-75
2021/03/01 00:44:50;;;;;;;50.58;24.00;;;6.40;99.90;;;;;;5008466;28;20242;-75
2021/03/01 00:47:17;;;;;;;45.42;23.10;;;6.40;99.90;;;;;;5008760;28;20618;-75
2021/03/01 00:49:44;;;;;;;49.85;22.70;;;6.40;99.90;;;;;;5010888;28;20203;-75
2021/03/01 00:52:11;;;;;;;44.58;21.15;;;6.30;99.90;;;;;;5013729;28;20225;-75
2021/03/01 00:54:37;;;;;;;51.80;22.00;;;6.20;99.90;;;;;;5007488;28;20210;-75
2021/03/01 00:57:04;;;;;;;47.22;21.52;;;6.20;99.90;;;;;;5007407;28;20234;-75
2021/03/01 00:59:31;;;;;;;41.92;21.08;;;6.10;99.90;;;;;;5007530;28;20207;-75
2021/03/01 01:01:57;;;;;;;49.10;22.35;;;6.10;99.90;;;;;;5012364;28;20203;-75
2021/03/01 01:04:25;;;;;;;46.00;22.17;;;6.10;99.90;;;;;;5007207;28;20227;-75
2021/03/01 01:06:51;;;;;;;47.95;21.52;;;6.10;99.90;;;;;;5007560;28;20206;-75
2021/03/01 01:09:18;;;;;;;48.75;22.00;;;6.10;99.90;;;;;;5007758;28;20207;-74
2021/03/01 01:11:45;;;;;;;43.58;20.13;;;6.10;99.90;;;;;;5007882;28;20199;-74
2021/03/01 01:14:11;;;;;;;41.03;21.55;;;6.00;99.90;;;;;;5008929;28;20203;-74
2021/03/01 01:16:39;;;;;;;40.58;20.73;;;5.90;99.90;;;;;;5013067;28;20238;-74
2021/03/01 01:19:08;;;;;;;37.97;19.25;;;5.90;99.90;;;;;;5008424;28;20203;-74
2021/03/01 01:21:36;;;;;;;45.40;21.27;;;5.90;99.90;;;;;;5010243;28;20199;-74
2021/03/01 01:24:03;;;;;;;42.83;21.08;;;5.70;99.90;;;;;;5010852;28;20210;-74
2021/03/01 01:26:29;;;;;;;41.78;19.95;;;5.70;99.90;;;;;;5011536;28;20211;-74
2021/03/01 01:28:56;;;;;;;38.90;18.38;;;5.70;99.90;;;;;;5007506;28;20203;-74
2021/03/01 01:31:22;;;;;;;41.60;20.70;;;5.70;99.90;;;;;;5016593;28;20203;-74
2021/03/01 01:33:49;;;;;;;43.03;19.42;;;5.70;99.90;;;;;;5008688;28;20230;-75
2021/03/01 01:36:15;;;;;;;42.47;19.52;;;5.70;99.90;;;;;;5007699;28;20203;-74
2021/03/01 01:38:43;;;;;;;50.50;22.48;;;5.80;99.90;;;;;;5006706;28;20206;-74
2021/03/01 01:41:09;;;;;;;45.88;21.30;;;5.80;99.90;;;;;;5007595;28;20199;-74
2021/03/01 01:43:36;;;;;;;37.88;19.50;;;5.80;99.90;;;;;;5007754;28;20207;-74
2021/03/01 01:46:02;;;;;;;38.28;19.48;;;5.90;99.90;;;;;;5007379;28;20246;-75
2021/03/01 01:48:29;;;;;;;40.65;19.08;;;5.90;99.90;;;;;;5007397;28;20220;-74
2021/03/01 01:50:55;;;;;;;36.10;17.67;;;5.90;99.90;;;;;;5015182;28;20211;-74
2021/03/01 01:53:22;;;;;;;41.22;18.42;;;5.90;99.90;;;;;;5008997;28;20202;-74
2021/03/01 01:55:50;;;;;;;31.88;16.50;;;5.80;99.90;;;;;;5007935;28;20207;-74
2021/03/01 01:58:17;;;;;;;37.03;18.10;;;5.80;99.90;;;;;;5013705;28;20199;-74
2021/03/01 02:00:46;;;;;;;33.00;17.38;;;5.70;99.90;;;;;;5015403;28;20287;-74
2021/03/01 02:03:38;;;;;;;36.42;18.90;;;5.60;99.90;;;;;;5007248;28;20214;-74
2021/03/01 02:06:14;;;;;;;37.00;18.90;;;5.60;99.90;;;;;;5005013;28;20223;-74
2021/03/01 02:08:56;;;;;;;42.10;18.95;;;5.60;99.90;;;;;;5006962;28;20214;-74
2021/03/01 02:11:34;;;;;;;38.13;18.70;;;5.60;99.90;;;;;;5006503;28;20209;-74
2021/03/01 02:14:09;;;;;;;36.97;18.48;;;5.60;99.90;;;;;;5012193;28;20203;-74
2021/03/01 02:16:36;;;;;;;37.17;18.63;;;5.50;99.90;;;;;;5009231;28;20205;-74
2021/03/01 02:19:05;;;;;;;41.75;19.48;;;5.50;99.90;;;;;;5015857;28;20290;-73
2021/03/01 02:21:32;;;;;;;39.33;18.92;;;5.40;99.90;;;;;;5011049;28;20200;-74
2021/03/01 02:23:59;;;;;;;41.38;20.02;;;5.40;99.90;;;;;;5015430;28;20237;-74
2021/03/01 02:26:31;;;;;;;36.88;18.92;;;5.40;99.90;;;;;;5012121;28;20214;-74
2021/03/01 02:29:03;;;;;;;36.45;17.75;;;5.30;99.90;;;;;;5006055;28;21028;-74
2021/03/01 02:31:31;;;;;;;42.20;19.88;;;5.20;99.90;;;;;;5012237;28;20210;-74
2021/03/01 02:34:01;;;;;;;42.35;20.60;;;5.20;99.90;;;;;;5008093;28;20215;-74
2021/03/01 02:36:32;;;;;;;41.35;19.02;;;5.20;99.90;;;;;;5007729;28;20211;-74
2021/03/01 02:39:02;;;;;;;39.38;20.25;;;5.30;99.90;;;;;;5009637;28;20217;-74
2021/03/01 02:41:29;;;;;;;40.25;17.95;;;5.30;99.90;;;;;;5012108;28;20199;-74
2021/03/01 02:43:56;;;;;;;38.97;19.92;;;5.20;99.90;;;;;;5010893;28;20264;-74
2021/03/01 02:46:23;;;;;;;35.63;18.20;;;5.20;99.90;;;;;;5010838;28;20242;-75
2021/03/01 02:48:51;;;;;;;40.55;21.33;;;5.20;99.90;;;;;;5013139;28;20214;-74
2021/03/01 02:51:19;;;;;;;43.38;19.95;;;5.20;99.90;;;;;;5006114;28;20208;-74
2021/03/01 02:53:46;;;;;;;45.13;20.52;;;5.10;99.90;;;;;;5011368;28;20203;-74
2021/03/01 02:56:16;;;;;;;44.35;20.60;;;5.20;99.90;;;;;;5005781;28;20237;-74
2021/03/01 02:58:43;;;;;;;43.30;20.23;;;5.30;99.90;;;;;;5005732;28;20219;-74
2021/03/01 03:01:11;;;;;;;41.78;20.30;;;5.30;99.90;;;;;;5006310;28;20214;-74
2021/03/01 03:03:40;;;;;;;41.25;17.95;;;5.30;99.90;;;;;;5012908;28;20202;-74
2021/03/01 03:06:11;;;;;;;41.33;19.98;;;5.30;99.90;;;;;;5005842;28;20235;-74
2021/03/01 03:08:39;;;;;;;38.95;19.25;;;5.30;99.90;;;;;;5010895;28;20250;-74
2021/03/01 03:11:06;;;;;;;41.83;20.42;;;5.30;99.90;;;;;;5009411;28;20203;-74
2021/03/01 03:13:34;;;;;;;45.88;20.50;;;5.20;99.90;;;;;;5010719;28;20214;-73
2021/03/01 03:16:02;;;;;;;43.20;18.42;;;5.20;99.90;;;;;;5010854;28;20221;-74
2021/03/01 03:18:29;;;;;;;39.63;16.52;;;5.20;99.90;;;;;;5011899;28;20236;-74
2021/03/01 03:20:58;;;;;;;40.95;16.85;;;5.20;99.90;;;;;;5009511;28;20298;-74
2021/03/01 03:23:25;;;;;;;39.92;19.75;;;5.20;99.90;;;;;;5006130;28;20221;-74
2021/03/01 03:25:52;;;;;;;36.28;18.30;;;5.20;99.90;;;;;;5006413;28;20239;-74
2021/03/01 03:28:19;;;;;;;42.30;18.98;;;5.20;99.90;;;;;;5009141;28;20206;-73
2021/03/01 03:30:46;;;;;;;38.78;19.17;;;5.20;99.90;;;;;;5005830;28;20258;-74
2021/03/01 03:33:13;;;;;;;34.50;16.00;;;5.30;99.90;;;;;;5006720;28;20210;-74
2021/03/01 03:35:40;;;;;;;49.45;21.90;;;5.30;99.90;;;;;;5006043;28;20199;-74
2021/03/01 03:38:11;;;;;;;46.22;19.48;;;5.30;99.90;;;;;;5009291;28;20718;-74
2021/03/01 03:40:39;;;;;;;41.00;18.05;;;5.30;99.90;;;;;;5013220;28;20214;-74
2021/03/01 03:43:07;;;;;;;41.08;18.33;;;5.30;99.90;;;;;;5015085;28;20206;-74
2021/03/01 03:45:35;;;;;;;42.85;21.10;;;5.30;99.90;;;;;;5005828;28;20235;-74
2021/03/01 03:48:04;;;;;;;37.47;19.13;;;5.40;99.90;;;;;;5013159;28;20230;-74
2021/03/01 03:50:32;;;;;;;37.60;19.27;;;5.40;99.90;;;;;;5009503;28;20207;-74
2021/03/01 03:53:04;;;;;;;45.42;18.17;;;5.30;99.90;;;;;;5009541;28;20238;-74
2021/03/01 03:55:32;;;;;;;50.38;20.60;;;5.30;99.90;;;;;;5012808;28;20656;-74
2021/03/01 03:58:02;;;;;;;38.83;19.95;;;5.40;99.90;;;;;;5015040;28;20229;-74
2021/03/01 04:00:32;;;;;;;43.08;21.42;;;5.40;99.90;;;;;;5014757;28;20210;-74
2021/03/01 04:03:01;;;;;;;46.97;20.15;;;5.40;99.90;;;;;;5009166;28;20207;-74
2021/03/01 04:05:29;;;;;;;39.83;19.75;;;5.40;99.90;;;;;;5009298;28;20242;-75
2021/03/01 04:07:57;;;;;;;37.35;19.67;;;5.50;99.90;;;;;;5008779;28;20609;-74
2021/03/01 04:10:23;;;;;;;45.38;21.40;;;5.60;99.90;;;;;;5012590;28;20199;-74
2021/03/01 04:12:54;;;;;;;40.35;19.40;;;5.60;99.90;;;;;;5009563;28;20636;-74
2021/03/01 04:15:20;;;;;;;46.35;20.75;;;5.70;99.90;;;;;;5008748;28;20199;-74
2021/03/01 04:17:49;;;;;;;40.83;19.83;;;5.70;99.90;;;;;;5008104;28;20214;-74
2021/03/01 04:20:22;;;;;;;42.42;20.15;;;5.90;99.90;;;;;;5008452;28;20203;-75
2021/03/01 04:22:51;;;;;;;43.08;20.20;;;5.90;99.90;;;;;;5009006;28;20354;-74
2021/03/01 04:25:18;;;;;;;44.90;20.35;;;5.90;99.90;;;;;;5009163;28;20234;-74
2021/03/01 04:27:46;;;;;;;45.45;19.98;;;5.90;99.90;;;;;;5008528;28;20203;-74
2021/03/01 04:30:15;;;;;;;43.08;21.73;;;5.90;99.90;;;;;;5008719;28;20234;-75
2021/03/01 04:32:44;;;;;;;41.83;20.05;;;5.90;99.90;;;;;;5013333;28;20218;-74
2021/03/01 04:35:13;;;;;;;40.05;20.80;;;5.80;99.90;;;;;;5008480;28;20271;-74
2021/03/01 04:37:39;;;;;;;42.53;19.42;;;5.60;99.90;;;;;;5008179;28;20209;-74
2021/03/01 04:40:08;;;;;;;40.22;18.90;;;5.40;99.90;;;;;;5008620;28;20207;-74
2021/03/01 04:42:36;;;;;;;38.45;19.42;;;5.30;99.90;;;;;;5010252;28;20230;-73
2021/03/01 04:45:05;;;;;;;40.83;19.73;;;5.20;99.90;;;;;;5017956;28;20313;-73
2021/03/01 04:47:33;;;;;;;40.08;19.58;;;5.30;99.90;;;;;;5008258;28;20230;-74
2021/03/01 04:50:00;;;;;;;46.80;21.17;;;5.20;99.90;;;;;;5015337;28;20724;-74
2021/03/01 04:52:29;;;;;;;45.33;19.80;;;5.30;99.90;;;;;;5008610;28;20269;-74
2021/03/01 04:54:56;;;;;;;38.78;19.95;;;5.20;99.90;;;;;;5008879;28;20238;-75
2021/03/01 04:57:25;;;;;;;42.00;18.38;;;5.20;99.90;;;;;;5014836;28;20207;-75
2021/03/01 04:59:52;;;;;;;41.35;18.02;;;5.30;99.90;;;;;;5008250;28;20218;-74
2021/03/01 05:02:20;;;;;;;38.25;17.85;;;5.30;99.90;;;;;;5012904;28;20203;-75
2021/03/01 05:04:47;;;;;;;43.67;19.80;;;5.40;99.90;;;;;;5016032;28;20262;-75
2021/03/01 05:07:13;;;;;;;36.22;17.95;;;5.40;99.90;;;;;;5013258;28;20207;-74
2021/03/01 05:09:40;;;;;;;37.00;19.42;;;5.40;99.90;;;;;;5012049;28;20207;-74
2021/03/01 05:12:07;;;;;;;36.17;19.25;;;5.40;99.90;;;;;;5009015;28;20644;-74
2021/03/01 05:14:34;;;;;;;40.28;19.70;;;5.40;99.90;;;;;;5009021;28;20217;-76
2021/03/01 05:17:02;;;;;;;47.20;18.83;;;5.40;99.90;;;;;;5008125;28;20222;-75
2021/03/01 05:19:30;;;;;;;41.58;20.02;;;5.40;99.90;;;;;;5008044;28;20219;-75
2021/03/01 05:21:57;;;;;;;47.85;20.30;;;5.40;99.90;;;;;;5007511;28;20641;-75
2021/03/01 05:24:24;;;;;;;41.15;21.17;;;5.30;99.90;;;;;;5007451;28;20207;-75
2021/03/01 05:26:50;;;;;;;43.85;20.42;;;5.30;99.90;;;;;;5013959;28;20270;-76
2021/03/01 05:29:17;;;;;;;49.47;21.70;;;5.40;99.90;;;;;;5015224;28;20580;-75
2021/03/01 05:31:44;;;;;;;45.20;20.65;;;5.40;99.90;;;;;;5007434;28;20676;-75
2021/03/01 05:34:11;;;;;;;43.42;20.60;;;5.40;99.90;;;;;;5007297;28;20307;-75
2021/03/01 05:36:38;;;;;;;44.47;20.55;;;5.50;99.90;;;;;;5011019;28;20202;-75
2021/03/01 05:39:05;;;;;;;46.83;21.10;;;5.50;99.90;;;;;;5019371;28;20211;-75
2021/03/01 05:41:33;;;;;;;44.50;20.98;;;5.50;99.90;;;;;;5015629;28;20229;-74
2021/03/01 05:43:59;;;;;;;48.00;22.48;;;5.50;99.90;;;;;;5012973;28;20233;-74
2021/03/01 05:46:27;;;;;;;53.30;24.00;;;5.50;99.90;;;;;;5013373;28;20378;-74
2021/03/01 05:48:55;;;;;;;48.20;22.25;;;5.30;99.90;;;;;;5012822;28;20626;-74
2021/03/01 05:51:25;;;;;;;47.47;22.08;;;5.20;99.90;;;;;;5007090;28;20203;-74
2021/03/01 05:53:55;;;;;;;48.53;20.33;;;5.30;99.90;;;;;;5007527;28;20203;-74
2021/03/01 05:56:21;;;;;;;45.42;19.60;;;5.30;99.90;;;;;;5013252;28;20206;-74
2021/03/01 05:58:50;;;;;;;48.17;22.33;;;5.30;99.90;;;;;;5006461;28;20558;-74
2021/03/01 06:01:17;;;;;;;43.25;20.80;;;5.20;99.90;;;;;;5014960;28;20200;-74
2021/03/01 06:03:44;;;;;;;48.35;20.73;;;5.20;99.90;;;;;;5016227;28;20202;-74
2021/03/01 06:06:12;;;;;;;44.55;21.05;;;5.30;99.90;;;;;;5007477;28;20238;-74
2021/03/01 06:08:39;;;;;;;44.42;20.20;;;5.30;99.90;;;;;;5006352;28;20343;-74
2021/03/01 06:11:08;;;;;;;44.58;21.00;;;5.30;99.90;;;;;;5010084;28;20199;-73
2021/03/01 06:13:35;;;;;;;43.03;21.38;;;5.20;99.90;;;;;;5013806;28;20229;-73
2021/03/01 06:16:04;;;;;;;41.30;21.80;;;5.30;99.90;;;;;;5012394;28;20207;-73
2021/03/01 06:18:31;;;;;;;51.17;20.20;;;5.20;99.90;;;;;;5006744;28;20214;-73
2021/03/01 06:21:09;;;;;;;46.47;21.20;;;5.20;99.90;;;;;;5007688;28;20469;-73
2021/03/01 06:23:39;;;;;;;37.70;19.55;;;5.10;99.90;;;;;;5005898;28;20493;-73
2021/03/01 06:26:29;;;;;;;49.75;20.38;;;5.20;99.90;;;;;;5011589;28;20246;-74
2021/03/01 06:29:06;;;;;;;45.80;20.25;;;5.20;99.90;;;;;;5001637;28;20214;-74
2021/03/01 06:31:34;;;;;;;46.28;20.30;;;5.10;99.90;;;;;;5016933;28;20201;-74
2021/03/01 06:34:19;;;;;;;50.90;21.23;;;5.10;99.90;;;;;;5006342;28;20207;-74
2021/03/01 06:37:06;;;;;;;44.10;20.77;;;5.20;99.90;;;;;;5012550;28;20210;-74
2021/03/01 06:39:36;;;;;;;48.60;20.67;;;5.30;99.90;;;;;;5006474;28;21123;-74
2021/03/01 06:42:22;;;;;;;45.13;19.35;;;5.30;99.90;;;;;;5007133;28;20195;-75
2021/03/01 06:45:10;;;;;;;42.97;19.48;;;5.30;99.90;;;;;;5009982;28;20231;-74
2021/03/01 06:47:50;;;;;;;41.47;18.25;;;5.30;99.90;;;;;;5011172;28;20664;-74
2021/03/01 06:50:30;;;;;;;42.25;19.33;;;5.40;99.90;;;;;;5008532;28;20209;-74
2021/03/01 06:52:57;;;;;;;43.65;20.63;;;5.40;99.90;;;;;;5006779;28;20199;-74
2021/03/01 06:55:25;;;;;;;50.17;20.60;;;5.40;99.90;;;;;;5018967;28;20213;-74
2021/03/01 06:57:51;;;;;;;49.28;20.80;;;5.40;99.90;;;;;;5006276;28;20710;-74
2021/03/01 07:00:24;;;;;;;38.17;17.80;;;5.40;99.90;;;;;;5012950;28;20203;-74
2021/03/01 07:02:50;;;;;;;46.22;19.17;;;5.50;99.90;;;;;;5006017;28;20206;-74
2021/03/01 07:05:17;;;;;;;45.65;20.92;;;5.40;99.90;;;;;;5006053;28;20237;-74
2021/03/01 07:07:43;;;;;;;46.03;19.98;;;5.40;99.90;;;;;;5006388;28;20206;-74
2021/03/01 07:10:11;;;;;;;47.47;18.77;;;5.50;99.90;;;;;;5006099;28;20206;-75
2021/03/01 07:12:44;;;;;;;42.05;18.15;;;5.60;99.90;;;;;;5010714;28;20202;-77
2021/03/01 07:15:12;;;;;;;41.03;18.58;;;5.70;99.90;;;;;;5014135;28;20244;-74
2021/03/01 07:17:40;;;;;;;39.70;17.58;;;5.70;99.90;;;;;;5007534;28;20207;-75
2021/03/01 07:20:09;;;;;;;42.42;18.50;;;5.70;99.90;;;;;;5006725;28;20214;-75
2021/03/01 07:22:39;;;;;;;41.33;17.88;;;5.70;99.90;;;;;;5014739;28;20210;-75
2021/03/01 07:25:08;;;;;;;37.53;18.13;;;5.80;99.90;;;;;;5013780;28;20252;-75
2021/03/01 07:27:39;;;;;;;39.28;18.85;;;5.80;99.90;;;;;;5018624;28;20576;-75
2021/03/01 07:30:08;;;;;;;34.97;17.95;;;5.90;99.90;;;;;;5016731;28;20269;-74
2021/03/01 07:32:37;;;;;;;35.50;17.67;;;5.90;99.90;;;;;;5013991;28;20215;-75
2021/03/01 07:35:05;;;;;;;40.50;18.77;;;6.00;99.90;;;;;;5014829;28;20240;-74
2021/03/01 07:37:33;;;;;;;36.78;18.48;;;6.10;99.90;;;;;;5014827;28;20203;-75
2021/03/01 07:39:59;;;;;;;38.25;18.00;;;6.20;99.90;;;;;;5010070;28;20245;-74
2021/03/01 07:42:29;;;;;;;33.85;17.63;;;6.20;99.90;;;;;;5009629;28;20203;-74
2021/03/01 07:44:55;;;;;;;33.13;17.05;;;6.20;99.90;;;;;;5013418;28;20226;-75
2021/03/01 07:47:28;;;;;;;38.50;19.05;;;6.20;99.90;;;;;;5014859;28;20290;-74
2021/03/01 07:49:55;;;;;;;36.05;17.58;;;6.20;99.90;;;;;;5011517;28;20227;-74
2021/03/01 07:52:38;;;;;;;42.10;17.63;;;6.10;99.90;;;;;;5010638;28;20211;-74
2021/03/01 07:55:09;;;;;;;31.48;16.50;;;6.00;99.90;;;;;;5009603;28;20238;-74
2021/03/01 07:57:36;;;;;;;30.13;15.57;;;6.00;99.90;;;;;;5013228;28;20205;-74
2021/03/01 08:00:24;;;;;;;36.13;17.67;;;6.00;99.90;;;;;;5009595;28;20218;-74
2021/03/01 08:02:51;;;;;;;30.67;15.38;;;6.10;99.90;;;;;;5018185;28;20203;-74
2021/03/01 08:05:24;;;;;;;30.05;15.00;;;6.10;99.90;;;;;;5009418;28;20289;-74
2021/03/01 08:07:51;;;;;;;27.90;15.57;;;6.10;99.90;;;;;;5009278;28;20223;-74
2021/03/01 08:10:44;;;;;;;33.25;15.50;;;6.10;99.90;;;;;;5009471;28;20559;-74
2021/03/01 08:13:13;;;;;;;29.52;15.52;;;6.00;99.90;;;;;;5012543;28;20209;-74
2021/03/01 08:15:42;;;;;;;31.55;14.93;;;6.10;99.90;;;;;;5021625;28;20206;-73
2021/03/01 08:18:12;;;;;;;20.63;10.32;;;6.10;99.90;;;;;;5009567;28;20242;-74
2021/03/01 08:20:55;;;;;;;27.30;13.70;;;6.10;99.90;;;;;;5013598;28;20206;-74
2021/03/01 08:23:32;;;;;;;26.40;13.40;;;6.00;99.90;;;;;;5012243;28;20207;-73
2021/03/01 08:26:02;;;;;;;26.33;14.20;;;5.80;99.90;;;;;;5008840;28;20254;-73
2021/03/01 08:28:54;;;;;;;22.58;13.15;;;5.80;99.90;;;;;;5008274;28;20211;-73
2021/03/01 08:31:29;;;;;;;21.45;11.48;;;5.80;99.90;;;;;;5011239;28;20258;-74
2021/03/01 08:34:31;;;;;;;29.77;15.48;;;5.80;99.90;;;;;;5009123;28;20206;-74
2021/03/01 08:36:59;;;;;;;28.85;14.55;;;5.80;99.90;;;;;;5012191;28;20206;-74
2021/03/01 08:40:00;;;;;;;29.58;15.02;;;5.70;99.90;;;;;;5010187;28;20290;-74
2021/03/01 08:42:52;;;;;;;33.40;15.60;;;5.70;99.90;;;;;;5004145;28;20253;-74
2021/03/01 08:45:33;;;;;;;33.10;16.48;;;5.90;99.90;;;;;;5018954;28;20234;-74
2021/03/01 08:48:01;;;;;;;27.80;14.73;;;6.10;99.90;;;;;;5015072;28;20202;-75
2021/03/01 08:50:31;;;;;;;29.05;14.25;;;6.20;99.90;;;;;;5008611;28;20721;-75
2021/03/01 08:52:57;;;;;;;29.73;15.27;;;6.50;99.90;;;;;;5012990;28;20214;-75
2021/03/01 08:55:24;;;;;;;34.20;15.13;;;6.70;99.90;;;;;;5014731;28;20261;-75
2021/03/01 08:58:08;;;;;;;26.50;14.00;;;6.90;99.90;;;;;;5008968;28;20210;-75
2021/03/01 09:00:37;;;;;;;29.42;14.25;;;6.90;99.90;;;;;;5011822;28;20585;-75
2021/03/01 09:03:11;;;;;;;24.63;14.05;;;7.00;99.90;;;;;;5007584;28;20210;-75
2021/03/01 09:05:38;;;;;;;28.40;15.32;;;6.90;99.90;;;;;;5010336;28;20232;-75
2021/03/01 09:08:05;;;;;;;32.78;16.15;;;7.00;99.90;;;;;;5010762;28;20207;-75
2021/03/01 09:10:41;;;;;;;26.80;14.40;;;7.10;99.90;;;;;;5013932;28;20249;-75
2021/03/01 09:13:08;;;;;;;30.13;15.68;;;7.10;99.90;;;;;;5008033;28;20211;-74
2021/03/01 09:15:35;;;;;;;30.23;15.82;;;7.10;99.90;;;;;;5008765;28;20751;-75
2021/03/01 09:18:04;;;;;;;29.67;15.18;;;7.00;99.90;;;;;;5013186;28;20241;-75
2021/03/01 09:20:51;;;;;;;29.48;15.23;;;6.90;99.90;;;;;;5009683;28;20211;-75
2021/03/01 09:23:38;;;;;;;28.67;15.63;;;7.10;99.90;;;;;;5016964;28;20199;-76
2021/03/01 09:26:06;;;;;;;26.35;13.68;;;7.30;99.90;;;;;;5014890;28;20242;-75
2021/03/01 09:28:35;;;;;;;22.60;12.95;;;7.50;99.90;;;;;;5010038;28;20210;-76
2021/03/01 09:31:07;;;;;;;23.15;13.18;;;7.50;99.90;;;;;;5017303;28;20207;-76
2021/03/01 09:33:34;;;;;;;27.27;14.25;;;7.70;99.90;;;;;;5015309;28;20212;-75
2021/03/01 09:36:01;;;;;;;23.88;13.50;;;7.60;99.90;;;;;;5014460;28;20210;-75
2021/03/01 09:38:28;;;;;;;23.27;13.15;;;7.80;99.90;;;;;;5007894;28;20202;-75
2021/03/01 09:41:00;;;;;;;25.77;13.32;;;7.90;99.90;;;;;;5018376;28;20225;-75
2021/03/01 09:43:27;;;;;;;24.80;13.82;;;8.00;99.90;;;;;;5006222;28;20216;-74
2021/03/01 09:45:55;;;;;;;28.17;14.13;;;8.30;99.90;;;;;;5012046;28;20277;-74
2021/03/01 09:48:22;;;;;;;26.17;14.02;;;8.50;99.90;;;;;;5007832;28;20199;-75
2021/03/01 09:50:49;;;;;;;24.35;13.80;;;8.60;99.90;;;;;;5010944;28;20207;-75
2021/03/01 09:53:18;;;;;;;27.35;14.63;;;8.80;99.90;;;;;;5009789;28;20723;-75
2021/03/01 09:55:45;;;;;;;29.85;13.45;;;8.90;99.90;;;;;;5008454;28;20202;-75
2021/03/01 09:58:29;;;;;;;22.17;13.85;;;8.80;99.90;;;;;;5007407;28;20199;-75
2021/03/01 10:01:14;;;;;;;24.33;14.70;;;9.10;99.90;;;;;;5005397;28;20207;-75
2021/03/01 10:03:43;;;;;;;30.55;15.95;;;9.10;99.90;;;;;;5010605;28;20206;-75
2021/03/01 10:06:10;;;;;;;27.92;16.33;;;9.00;99.90;;;;;;5009951;28;20230;-74
2021/03/01 10:08:38;;;;;;;27.70;15.98;;;9.10;99.90;;;;;;5011848;28;20319;-75
2021/03/01 10:11:05;;;;;;;20.70;12.68;;;9.50;99.90;;;;;;5007383;28;20207;-74
2021/03/01 10:13:33;;;;;;;23.35;14.13;;;10.10;99.90;;;;;;5014939;28;20557;-74
2021/03/01 10:16:01;;;;;;;21.80;12.90;;;10.40;99.90;;;;;;5009365;28;20219;-74
2021/03/01 10:18:30;;;;;;;22.95;12.50;;;10.40;99.90;;;;;;5006133;28;20211;-74
2021/03/01 10:20:59;;;;;;;26.30;14.75;;;10.20;99.90;;;;;;5010665;28;20210;-75
2021/03/01 10:23:31;;;;;;;23.77;12.43;;;9.80;99.90;;;;;;5012984;28;20206;-74
2021/03/01 10:26:15;;;;;;;22.73;13.57;;;9.70;99.90;;;;;;5006841;28;20262;-74
2021/03/01 10:29:01;;;;;;;21.70;13.07;;;9.70;99.90;;;;;;5012264;28;20209;-74
2021/03/01 10:31:33;;;;;;;27.48;13.75;;;9.70;99.90;;;;;;5005799;28;20290;-74
2021/03/01 10:34:02;;;;;;;26.60;13.82;;;10.00;99.90;;;;;;5013696;28;20249;-75
2021/03/01 10:36:33;;;;;;;21.15;13.15;;;10.20;99.90;;;;;;5015381;28;20210;-74
2021/03/01 10:39:18;;;;;;;23.92;14.35;;;10.30;99.90;;;;;;5009890;28;20195;-74
2021/03/01 10:41:47;;;;;;;26.02;13.50;;;10.40;99.90;;;;;;5012014;28;20207;-74
2021/03/01 10:44:26;;;;;;;22.30;11.52;;;10.20;99.90;;;;;;5015020;28;20199;-73
2021/03/01 10:46:53;;;;;;;21.92;12.23;;;10.10;99.90;;;;;;5011802;28;20253;-73
2021/03/01 10:49:22;;;;;;;20.95;11.75;;;10.10;99.90;;;;;;5008550;28;20195;-73
2021/03/01 10:51:49;;;;;;;22.23;13.13;;;10.30;99.90;;;;;;5005702;28;20199;-74
2021/03/01 10:54:16;;;;;;;18.98;11.70;;;10.60;99.90;;;;;;5012008;28;20203;-74
2021/03/01 10:56:44;;;;;;;18.83;11.50;;;10.80;99.90;;;;;;5016981;28;20215;-73
2021/03/01 10:59:12;;;;;;;23.45;11.70;;;10.70;99.90;;;;;;5016390;28;20264;-74
2021/03/01 11:04:53;;;;;;;19.52;12.82;;;10.30;99.90;;;;;;5112707;27;20577;-73
2021/03/01 11:07:20;;;;;;;23.95;11.48;;;10.10;99.90;;;;;;5104688;28;20196;-72
2021/03/01 11:09:47;;;;;;;21.17;11.75;;;9.90;99.90;;;;;;5110552;28;20204;-72
2021/03/01 11:12:15;;;;;;;19.45;12.15;;;9.80;99.90;;;;;;5104199;28;20200;-73
2021/03/01 11:14:42;;;;;;;19.98;10.82;;;10.00;99.90;;;;;;5103157;28;20218;-73
2021/03/01 11:17:10;;;;;;;20.75;12.25;;;10.40;99.90;;;;;;5101288;28;20302;-73
2021/03/01 11:19:37;;;;;;;19.08;11.20;;;10.60;99.90;;;;;;5106925;28;20200;-73
2021/03/01 11:22:05;;;;;;;19.05;11.23;;;10.70;99.90;;;;;;5112359;28;20645;-73
2021/03/01 11:24:31;;;;;;;16.38;10.43;;;10.50;99.90;;;;;;5101887;28;20224;-73
2021/03/01 11:26:58;;;;;;;18.67;11.73;;;10.10;99.90;;;;;;5108267;28;20196;-73
2021/03/01 11:29:24;;;;;;;22.90;11.85;;;9.80;99.90;;;;;;5111570;28;20207;-73
2021/03/01 11:31:51;;;;;;;18.45;10.73;;;9.60;99.90;;;;;;5110831;28;20199;-73
2021/03/01 11:34:18;;;;;;;19.02;10.52;;;9.60;99.90;;;;;;5101916;28;20192;-73
2021/03/01 11:36:44;;;;;;;20.38;12.27;;;9.60;99.90;;;;;;5102698;28;20206;-73
2021/03/01 11:39:13;;;;;;;20.48;11.57;;;9.60;99.90;;;;;;5109166;28;20204;-73
2021/03/01 11:41:40;;;;;;;26.85;12.55;;;9.40;99.90;;;;;;5102034;28;20222;-73
2021/03/01 11:44:07;;;;;;;22.95;12.75;;;9.30;99.90;;;;;;5106696;28;20288;-73
2021/03/01 11:46:33;;;;;;;20.25;11.02;;;9.30;99.90;;;;;;5105554;28;20196;-73
2021/03/01 11:49:00;;;;;;;18.23;12.10;;;9.20;99.90;;;;;;5107236;28;20207;-73
2021/03/01 11:51:26;;;;;;;20.58;10.70;;;9.30;99.90;;;;;;5103887;28;20207;-73
2021/03/01 11:53:53;;;;;;;16.00;10.82;;;9.20;99.90;;;;;;5104663;28;20234;-73
2021/03/01 11:56:20;;;;;;;21.10;12.15;;;9.10;99.90;;;;;;5101460;28;20623;-73
2021/03/01 11:58:47;;;;;;;20.15;12.45;;;9.00;99.90;;;;;;5106823;28;20212;-73
2021/03/01 12:01:13;;;;;;;16.15;10.73;;;9.00;99.90;;;;;;5105812;28;20196;-73
2021/03/01 12:03:40;;;;;;;19.40;12.60;;;9.00;99.90;;;;;;5101146;28;20297;-73
2021/03/01 12:06:07;;;;;;;22.98;11.32;;;9.00;99.90;;;;;;5109506;28;20215;-73
2021/03/01 12:08:34;;;;;;;20.70;12.10;;;9.00;99.90;;;;;;5103883;28;20192;-73
2021/03/01 12:11:01;;;;;;;22.77;12.20;;;9.00;99.90;;;;;;5102077;28;20653;-73
2021/03/01 12:13:29;;;;;;;20.17;12.10;;;9.00;99.90;;;;;;5104754;28;20196;-73
2021/03/01 12:15:59;;;;;;;19.95;12.88;;;8.90;99.90;;;;;;5091752;28;20206;-72
2021/03/01 12:18:26;;;;;;;20.77;10.68;;;8.90;99.90;;;;;;5089221;28;20288;-72
2021/03/01 12:20:55;;;;;;;21.70;11.23;;;9.00;99.90;;;;;;5090092;28;20212;-73
2021/03/01 12:23:21;;;;;;;17.98;10.55;;;9.20;99.90;;;;;;5094556;28;20223;-73
2021/03/01 12:25:48;;;;;;;20.80;12.48;;;9.20;99.90;;;;;;5086564;28;20205;-73
2021/03/01 12:28:14;;;;;;;20.95;11.98;;;9.10;99.90;;;;;;5087877;28;20200;-73
2021/03/01 12:30:42;;;;;;;23.02;12.40;;;9.10;99.90;;;;;;5087227;28;20231;-73
2021/03/01 12:33:08;;;;;;;19.75;11.95;;;9.20;99.90;;;;;;5098104;28;20203;-73
2021/03/01 12:35:35;;;;;;;17.52;10.32;;;9.30;99.90;;;;;;5088204;28;20204;-73
2021/03/01 12:38:02;;;;;;;18.17;10.13;;;9.20;99.90;;;;;;5095403;28;20201;-73
2021/03/01 12:40:29;;;;;;;20.13;11.57;;;9.20;99.90;;;;;;5087931;28;20201;-73
2021/03/01 12:42:55;;;;;;;19.58;10.20;;;9.30;99.90;;;;;;5093559;28;20215;-73
2021/03/01 12:45:22;;;;;;;23.23;10.82;;;9.40;99.90;;;;;;5087812;28;20634;-73
2021/03/01 12:47:49;;;;;;;26.67;13.70;;;9.40;99.90;;;;;;5092622;28;20207;-73
2021/03/01 12:50:17;;;;;;;27.90;13.10;;;9.30;99.90;;;;;;5087290;28;20208;-73